createdAt,value
2023-06-12T00:01:26.257Z,14.49
2023-06-12T00:03:56.826Z,14.46
2023-06-12T00:06:24.292Z,14.46
2023-06-12T00:08:54.683Z,14.48
2023-06-12T00:11:24.689Z,14.49
2023-06-12T00:13:51.731Z,14.48
2023-06-12T00:16:20.057Z,14.47
2023-06-12T00:18:49.627Z,14.45
2023-06-12T00:21:17.380Z,14.42
2023-06-12T00:23:44.880Z,14.42
2023-06-12T00:26:13.113Z,14.39
2023-06-12T00:28:42.212Z,14.35
2023-06-12T00:31:18.609Z,14.34
2023-06-12T00:33:48.183Z,14.33
2023-06-12T00:36:17.621Z,14.30
2023-06-12T00:38:46.887Z,14.26
2023-06-12T00:41:16.086Z,14.26
2023-06-12T00:43:44.772Z,14.25
2023-06-12T00:46:14.514Z,14.21
2023-06-12T00:49:02.634Z,14.21
2023-06-12T00:51:42.181Z,14.20
2023-06-12T00:54:09.212Z,14.18
2023-06-12T00:56:36.269Z,14.14
2023-06-12T00:59:03.852Z,14.15
2023-06-12T01:01:30.919Z,14.17
2023-06-12T01:04:01.490Z,14.17
2023-06-12T01:06:56.010Z,14.18
2023-06-12T01:09:37.431Z,14.12
2023-06-12T01:12:08.062Z,14.12
2023-06-12T01:14:43.453Z,14.12
2023-06-12T01:17:11.973Z,14.14
2023-06-12T01:19:49.724Z,14.13
2023-06-12T01:22:17.325Z,14.11
2023-06-12T01:24:54.160Z,14.09
2023-06-12T01:27:24.282Z,14.11
2023-06-12T01:29:57.281Z,14.14
2023-06-12T01:32:26.600Z,14.08
2023-06-12T01:35:06.621Z,14.06
2023-06-12T01:37:48.720Z,14.05
2023-06-12T01:40:19.551Z,14.06
2023-06-12T01:42:47.527Z,14.06
2023-06-12T01:45:14.907Z,14.03
2023-06-12T01:48:01.881Z,14.00
2023-06-12T01:50:31.202Z,14.01
2023-06-12T01:52:58.161Z,14.01
2023-06-12T01:55:25.324Z,14.01
2023-06-12T01:58:09.244Z,14.03
2023-06-12T02:00:59.625Z,14.02
2023-06-12T02:03:29.652Z,13.98
2023-06-12T02:05:56.693Z,13.96
2023-06-12T02:08:26.504Z,13.96
2023-06-12T02:10:53.484Z,13.97
2023-06-12T02:13:20.600Z,13.98
2023-06-12T02:15:48.259Z,14.00
2023-06-12T02:18:16.139Z,13.97
2023-06-12T02:20:43.097Z,13.98
2023-06-12T02:23:10.474Z,13.97
2023-06-12T02:25:37.512Z,13.99
2023-06-12T02:28:15.477Z,14.01
2023-06-12T02:31:04.255Z,14.01
2023-06-12T02:33:40.054Z,14.00
2023-06-12T02:36:08.156Z,14.01
2023-06-12T02:38:36.051Z,14.04
2023-06-12T02:41:03.395Z,14.07
2023-06-12T02:43:33.004Z,14.06
2023-06-12T02:46:00.844Z,14.08
2023-06-12T02:48:31.314Z,14.14
2023-06-12T02:51:03.771Z,14.14
2023-06-12T02:53:39.877Z,14.16
2023-06-12T02:56:07.166Z,14.17
2023-06-12T02:58:35.150Z,14.17
2023-06-12T03:01:22.382Z,14.18
2023-06-12T03:03:53.728Z,14.21
2023-06-12T03:06:29.050Z,14.22
2023-06-12T03:08:56.609Z,14.19
2023-06-12T03:11:24.786Z,14.17
2023-06-12T03:13:52.464Z,14.18
2023-06-12T03:16:25.193Z,14.19
2023-06-12T03:18:52.203Z,14.23
2023-06-12T03:21:19.253Z,14.25
2023-06-12T03:23:46.605Z,14.29
2023-06-12T03:26:16.593Z,14.31
2023-06-12T03:28:45.275Z,14.34
2023-06-12T03:31:13.901Z,14.38
2023-06-12T03:33:41.521Z,14.41
2023-06-12T03:36:12.260Z,14.44
2023-06-12T03:38:40.119Z,14.51
2023-06-12T03:41:34.330Z,14.49
2023-06-12T03:44:03.513Z,14.46
2023-06-12T03:46:32.643Z,14.46
2023-06-12T03:48:59.849Z,14.46
2023-06-12T03:51:26.906Z,14.46
2023-06-12T03:53:55.071Z,14.47
2023-06-12T03:56:24.577Z,14.52
2023-06-12T03:58:52.036Z,14.54
2023-06-12T04:01:19.491Z,14.59
2023-06-12T04:03:48.971Z,14.61
2023-06-12T04:06:15.935Z,14.69
2023-06-12T04:08:47.006Z,14.76
2023-06-12T04:11:15.716Z,14.78
2023-06-12T04:13:42.640Z,14.83
2023-06-12T04:16:13.631Z,14.87
2023-06-12T04:18:43.874Z,14.90
2023-06-12T04:21:12.150Z,14.93
2023-06-12T04:23:41.975Z,14.93
2023-06-12T04:26:16.203Z,14.95
2023-06-12T04:28:45.215Z,14.96
2023-06-12T04:31:17.773Z,14.93
2023-06-12T04:33:46.131Z,14.96
2023-06-12T04:36:18.613Z,14.98
2023-06-12T04:38:53.329Z,14.99
2023-06-12T04:41:25.438Z,14.97
2023-06-12T04:46:53.203Z,15.00
2023-06-12T04:49:20.230Z,15.02
2023-06-12T04:51:49.760Z,15.00
2023-06-12T04:54:39.723Z,14.93
2023-06-12T04:57:17.012Z,14.96
2023-06-12T04:59:46.626Z,14.99
2023-06-12T05:02:15.178Z,14.99
2023-06-12T05:04:42.459Z,14.99
2023-06-12T05:07:19.987Z,15.02
2023-06-12T05:09:50.412Z,15.10
2023-06-12T05:12:28.404Z,15.14
2023-06-12T05:15:01.869Z,15.10
2023-06-12T05:17:42.602Z,15.09
2023-06-12T05:20:10.244Z,15.05
2023-06-12T05:22:40.632Z,15.06
2023-06-12T05:25:08.393Z,15.06
2023-06-12T05:27:36.768Z,15.03
2023-06-12T05:30:10.601Z,15.03
2023-06-12T05:32:38.668Z,15.03
2023-06-12T05:35:07.442Z,14.97
2023-06-12T05:37:34.489Z,14.91
2023-06-12T05:40:10.297Z,14.91
2023-06-12T05:42:38.414Z,14.84
2023-06-12T05:45:09.156Z,14.82
2023-06-12T05:47:37.712Z,14.83
2023-06-12T05:50:08.414Z,14.77
2023-06-12T05:52:40.036Z,14.74
2023-06-12T05:55:09.036Z,14.77
2023-06-12T05:57:37.591Z,14.75
2023-06-12T06:00:07.721Z,14.72
2023-06-12T06:02:45.301Z,14.70
2023-06-12T06:05:21.676Z,14.71
2023-06-12T06:07:51.172Z,14.73
2023-06-12T06:10:19.344Z,14.78
2023-06-12T06:12:47.041Z,14.78
2023-06-12T06:15:15.543Z,14.79
2023-06-12T06:17:43.602Z,14.84
2023-06-12T06:20:12.965Z,14.87
2023-06-12T06:22:43.805Z,14.87
2023-06-12T06:25:11.805Z,14.90
2023-06-12T06:27:40.452Z,14.89
2023-06-12T06:30:08.830Z,14.86
2023-06-12T06:32:36.409Z,14.85
2023-06-12T06:35:04.566Z,14.91
2023-06-12T06:37:32.238Z,14.92
2023-06-12T06:39:59.274Z,14.94
2023-06-12T06:42:29.085Z,14.93
2023-06-12T06:45:04.890Z,14.89
2023-06-12T06:47:32.148Z,14.89
2023-06-12T06:50:00.568Z,14.93
2023-06-12T06:52:27.837Z,14.95
2023-06-12T06:54:58.975Z,14.94
2023-06-12T06:57:27.460Z,14.89
2023-06-12T06:59:56.644Z,14.82
2023-06-12T07:02:23.912Z,14.80
2023-06-12T07:04:53.003Z,14.76
2023-06-12T07:07:19.937Z,14.74
2023-06-12T07:09:47.090Z,14.81
2023-06-12T07:12:14.711Z,14.87
2023-06-12T07:14:43.346Z,14.86
2023-06-12T07:17:10.390Z,14.86
2023-06-12T07:19:38.058Z,14.88
2023-06-12T07:22:06.134Z,14.89
2023-06-12T07:24:33.656Z,14.88
2023-06-12T07:27:02.094Z,14.90
2023-06-12T07:29:30.847Z,14.89
2023-06-12T07:31:58.198Z,14.90
2023-06-12T07:34:25.245Z,14.89
2023-06-12T07:36:53.443Z,14.86
2023-06-12T07:39:21.430Z,14.85
2023-06-12T07:41:49.355Z,14.85
2023-06-12T07:44:17.732Z,14.87
2023-06-12T07:46:45.626Z,14.89
2023-06-12T07:49:15.332Z,14.92
2023-06-12T07:51:42.868Z,14.90
2023-06-12T07:54:12.986Z,14.90
2023-06-12T07:56:43.578Z,14.87
2023-06-12T07:59:11.999Z,14.87
2023-06-12T08:01:43.490Z,14.85
2023-06-12T08:04:12.679Z,14.85
2023-06-12T08:06:42.201Z,14.83
2023-06-12T08:09:10.467Z,14.80
2023-06-12T08:11:40.467Z,14.74
2023-06-12T08:14:10.676Z,14.72
2023-06-12T08:16:39.823Z,14.72
2023-06-12T08:19:07.323Z,14.75
2023-06-12T08:21:35.954Z,14.81
2023-06-12T08:24:04.135Z,14.89
2023-06-12T08:26:33.602Z,14.99
2023-06-12T08:29:01.260Z,15.07
2023-06-12T08:31:35.253Z,15.15
2023-06-12T08:34:02.822Z,15.17
2023-06-12T08:36:29.992Z,15.22
2023-06-12T08:38:57.123Z,15.22
2023-06-12T08:41:24.412Z,15.27
2023-06-12T08:43:54.056Z,15.32
2023-06-12T08:46:23.446Z,15.37
2023-06-12T08:48:51.373Z,15.44
2023-06-12T08:51:18.404Z,15.49
2023-06-12T08:53:46.503Z,15.57
2023-06-12T08:56:13.526Z,15.63
2023-06-12T08:58:40.479Z,15.66
2023-06-12T09:01:13.287Z,15.65
2023-06-12T09:03:42.586Z,15.65
2023-06-12T09:06:09.836Z,15.65
2023-06-12T09:08:39.503Z,15.62
2023-06-12T09:11:06.653Z,15.59
2023-06-12T09:13:42.405Z,15.60
2023-06-12T09:16:14.394Z,15.68
2023-06-12T09:18:52.537Z,15.70
2023-06-12T09:21:24.506Z,15.70
2023-06-12T09:23:52.570Z,15.70
2023-06-12T09:26:22.574Z,15.69
2023-06-12T09:28:53.563Z,15.70
2023-06-12T09:31:22.239Z,15.75
2023-06-12T09:33:56.056Z,15.81
2023-06-12T09:36:31.660Z,15.82
2023-06-12T09:38:58.753Z,15.85
2023-06-12T09:41:26.822Z,15.86
2023-06-12T09:44:02.060Z,15.85
2023-06-12T09:46:30.704Z,15.85
2023-06-12T09:48:58.360Z,15.87
2023-06-12T09:51:27.047Z,15.92
2023-06-12T09:53:55.618Z,15.95
2023-06-12T09:56:22.523Z,15.96
2023-06-12T09:58:50.593Z,15.99
2023-06-12T10:01:20.048Z,16.04
2023-06-12T10:03:47.433Z,16.03
2023-06-12T10:06:15.526Z,16.02
2023-06-12T10:08:42.569Z,16.02
2023-06-12T10:11:09.720Z,16.04
2023-06-12T10:13:37.202Z,16.03
2023-06-12T10:16:05.110Z,16.02
2023-06-12T10:18:32.122Z,16.02
2023-06-12T10:20:59.251Z,16.08
2023-06-12T10:23:26.501Z,16.10
2023-06-12T10:25:54.070Z,16.13
2023-06-12T10:28:21.965Z,16.18
2023-06-12T10:31:13.687Z,16.22
2023-06-12T10:34:10.291Z,16.26
2023-06-12T10:36:44.525Z,16.31
2023-06-12T10:39:16.970Z,16.38
2023-06-12T10:41:55.346Z,16.46
2023-06-12T10:44:40.496Z,16.50
2023-06-12T10:47:18.816Z,16.57
2023-06-12T10:49:57.244Z,16.56
2023-06-12T10:52:24.850Z,16.55
2023-06-12T10:55:21.483Z,16.53
2023-06-12T10:57:50.579Z,16.57
2023-06-12T11:00:19.145Z,16.58
2023-06-12T11:02:58.235Z,16.59
2023-06-12T11:05:27.435Z,16.67
2023-06-12T11:08:00.024Z,16.74
2023-06-12T11:10:27.736Z,16.77
2023-06-12T11:12:54.784Z,16.76
2023-06-12T11:15:23.427Z,16.74
2023-06-12T11:17:52.120Z,16.76
2023-06-12T11:20:21.152Z,16.77
2023-06-12T11:22:48.404Z,16.77
2023-06-12T11:25:17.945Z,16.82
2023-06-12T11:27:45.568Z,16.88
2023-06-12T11:30:30.517Z,16.94
2023-06-12T11:33:11.150Z,16.98
2023-06-12T11:35:46.760Z,17.02
2023-06-12T11:40:48.890Z,17.03
2023-06-12T11:43:19.467Z,17.06
2023-06-12T11:45:46.508Z,16.98
2023-06-12T11:50:49.155Z,16.93
2023-06-12T11:53:18.097Z,16.95
2023-06-12T11:58:22.463Z,17.05
2023-06-12T12:00:50.790Z,17.07
2023-06-12T12:03:20.396Z,17.10
2023-06-12T12:05:47.570Z,17.14
2023-06-12T12:08:14.923Z,17.18
2023-06-12T12:10:42.506Z,17.18
2023-06-12T12:13:09.634Z,17.19
2023-06-12T12:15:43.259Z,17.17
2023-06-12T12:18:14.577Z,17.13
2023-06-12T12:20:43.069Z,17.12
2023-06-12T12:23:13.491Z,17.10
2023-06-12T12:25:45.088Z,17.08
2023-06-12T12:28:12.094Z,17.09
2023-06-12T12:30:40.060Z,17.15
2023-06-12T12:33:09.105Z,17.22
2023-06-12T12:35:37.237Z,17.29
2023-06-12T12:38:04.990Z,17.37
2023-06-12T12:40:33.406Z,17.43
2023-06-12T12:43:00.619Z,17.45
2023-06-12T12:45:28.595Z,17.50
2023-06-12T12:47:56.195Z,17.49
2023-06-12T12:50:27.743Z,17.41
2023-06-12T12:52:56.294Z,17.37
2023-06-12T12:55:23.242Z,17.41
2023-06-12T12:57:54.883Z,17.45
2023-06-12T13:00:30.267Z,17.49
2023-06-12T13:02:58.363Z,17.53
2023-06-12T13:05:25.574Z,17.55
2023-06-12T13:07:53.330Z,17.57
2023-06-12T13:10:21.696Z,17.57
2023-06-12T13:12:49.705Z,17.58
2023-06-12T13:15:16.713Z,17.60
2023-06-12T13:17:44.496Z,17.62
2023-06-12T13:20:12.368Z,17.62
2023-06-12T13:22:40.310Z,17.63
2023-06-12T13:25:08.611Z,17.65
2023-06-12T13:27:35.733Z,17.68
2023-06-12T13:30:04.667Z,17.72
2023-06-12T13:32:33.780Z,17.74
2023-06-12T13:35:01.803Z,17.71
2023-06-12T13:37:29.185Z,17.65
2023-06-12T13:39:56.295Z,17.57
2023-06-12T13:42:23.377Z,17.56
2023-06-12T13:44:50.771Z,17.58
2023-06-12T13:47:18.055Z,17.64
2023-06-12T13:49:46.028Z,17.68
2023-06-12T13:52:14.509Z,17.69
2023-06-12T13:54:42.092Z,17.69
2023-06-12T13:57:09.421Z,17.66
2023-06-12T13:59:37.797Z,17.64
2023-06-12T14:02:05.312Z,17.64
2023-06-12T14:04:33.074Z,17.62
2023-06-12T14:07:01.445Z,17.60
2023-06-12T14:09:28.350Z,17.57
2023-06-12T14:11:55.729Z,17.55
2023-06-12T14:14:23.574Z,17.58
2023-06-12T14:16:55.534Z,17.62
2023-06-12T14:19:25.307Z,17.66
2023-06-12T14:21:52.283Z,17.67
2023-06-12T14:24:36.214Z,17.73
2023-06-12T14:27:06.652Z,17.77
2023-06-12T14:29:33.914Z,17.75
2023-06-12T14:32:01.096Z,17.70
2023-06-12T14:34:28.749Z,17.66
2023-06-12T14:36:55.864Z,17.64
2023-06-12T14:39:22.851Z,17.62
2023-06-12T14:41:50.210Z,17.61
2023-06-12T14:44:17.635Z,17.64
2023-06-12T14:46:44.669Z,17.68
2023-06-12T14:49:12.646Z,17.63
2023-06-12T14:51:39.597Z,17.63
2023-06-12T14:54:06.653Z,17.64
2023-06-12T14:56:33.917Z,17.64
2023-06-12T14:59:01.443Z,17.60
2023-06-12T15:01:28.604Z,17.55
2023-06-12T15:03:57.491Z,17.53
2023-06-12T15:06:24.844Z,17.53
2023-06-12T15:08:51.793Z,17.50
2023-06-12T15:11:18.978Z,17.48
2023-06-12T15:13:46.319Z,17.49
2023-06-12T15:16:13.254Z,17.50
2023-06-12T15:18:44.903Z,17.54
2023-06-12T15:21:14.514Z,17.56
2023-06-12T15:23:41.729Z,17.61
2023-06-12T15:26:09.117Z,17.64
2023-06-12T15:28:36.150Z,17.64
2023-06-12T15:31:03.362Z,17.63
2023-06-12T15:33:30.445Z,17.63
2023-06-12T15:35:57.582Z,17.65
2023-06-12T15:38:48.109Z,17.68
2023-06-12T15:41:15.261Z,17.70
2023-06-12T15:43:42.375Z,17.66
2023-06-12T15:46:10.497Z,17.64
2023-06-12T15:48:41.412Z,17.64
2023-06-12T15:51:10.807Z,17.64
2023-06-12T15:53:40.130Z,17.62
2023-06-12T15:56:08.079Z,17.60
2023-06-12T15:58:36.290Z,17.54
2023-06-12T16:01:03.601Z,17.52
2023-06-12T16:03:31.039Z,17.49
2023-06-12T16:05:58.218Z,17.47
2023-06-12T16:08:26.485Z,17.45
2023-06-12T16:10:53.554Z,17.42
2023-06-12T16:13:20.910Z,17.38
2023-06-12T16:15:48.074Z,17.36
2023-06-12T16:18:17.748Z,17.33
2023-06-12T16:20:45.100Z,17.32
2023-06-12T16:23:13.389Z,17.27
2023-06-12T16:25:40.845Z,17.23
2023-06-12T16:28:08.111Z,17.24
2023-06-12T16:30:35.544Z,17.26
2023-06-12T16:33:16.993Z,17.24
2023-06-12T16:35:49.384Z,17.21
2023-06-12T16:38:16.869Z,17.23
2023-06-12T16:40:43.936Z,17.25
2023-06-12T16:43:10.969Z,17.27
2023-06-12T16:45:38.824Z,17.29
2023-06-12T16:48:06.782Z,17.32
2023-06-12T16:50:34.457Z,17.32
2023-06-12T16:53:01.562Z,17.31
2023-06-12T16:55:28.857Z,17.27
2023-06-12T16:57:56.008Z,17.25
2023-06-12T17:00:23.265Z,17.21
2023-06-12T17:02:50.969Z,17.18
2023-06-12T17:05:18.627Z,17.16
2023-06-12T17:07:47.370Z,17.14
2023-06-12T17:10:15.461Z,17.12
2023-06-12T17:12:43.107Z,17.09
2023-06-12T17:15:11.379Z,17.05
2023-06-12T17:17:39.486Z,17.06
2023-06-12T17:20:07.543Z,17.09
2023-06-12T17:22:35.289Z,17.09
2023-06-12T17:25:02.435Z,17.06
2023-06-12T17:27:30.017Z,17.02
2023-06-12T17:29:58.170Z,17.00
2023-06-12T17:32:26.698Z,16.99
2023-06-12T17:34:54.424Z,16.96
2023-06-12T17:37:21.563Z,16.94
2023-06-12T17:39:49.201Z,16.93
2023-06-12T17:42:16.379Z,16.90
2023-06-12T17:44:44.183Z,16.90
2023-06-12T17:47:11.307Z,16.88
2023-06-12T17:49:38.448Z,16.88
2023-06-12T17:52:06.348Z,16.84
2023-06-12T17:54:33.978Z,16.80
2023-06-12T17:57:01.442Z,16.80
2023-06-12T17:59:28.816Z,16.79
2023-06-12T18:01:56.068Z,16.78
2023-06-12T18:04:23.656Z,16.79
2023-06-12T18:06:51.461Z,16.78
2023-06-12T18:09:19.032Z,16.80
2023-06-12T18:11:46.372Z,16.80
2023-06-12T18:14:13.346Z,16.80
2023-06-12T18:16:40.608Z,16.83
2023-06-12T18:19:07.559Z,16.88
2023-06-12T18:21:34.670Z,16.91
2023-06-12T18:24:01.778Z,16.90
2023-06-12T18:26:30.194Z,16.86
2023-06-12T18:28:57.754Z,16.82
2023-06-12T18:31:25.119Z,16.81
2023-06-12T18:33:53.397Z,16.81
2023-06-12T18:36:20.467Z,16.80
2023-06-12T18:38:48.402Z,16.79
2023-06-12T18:41:16.163Z,16.78
2023-06-12T18:43:43.727Z,16.74
2023-06-12T18:46:10.997Z,16.69
2023-06-12T18:48:38.886Z,16.70
2023-06-12T18:51:09.265Z,16.71
2023-06-12T18:53:36.528Z,16.71
2023-06-12T18:56:04.492Z,16.73
2023-06-12T18:58:32.260Z,16.72
2023-06-12T19:00:59.320Z,16.72
2023-06-12T19:03:26.628Z,16.68
2023-06-12T19:05:53.837Z,16.68
2023-06-12T19:08:21.086Z,16.69
2023-06-12T19:10:48.615Z,16.69
2023-06-12T19:13:15.881Z,16.70
2023-06-12T19:15:43.529Z,16.69
2023-06-12T19:18:10.528Z,16.66
2023-06-12T19:20:37.728Z,16.66
2023-06-12T19:23:04.842Z,16.65
2023-06-12T19:25:32.134Z,16.66
2023-06-12T19:27:59.906Z,16.68
2023-06-12T19:30:27.353Z,16.71
2023-06-12T19:32:55.261Z,16.73
2023-06-12T19:35:22.688Z,16.73
2023-06-12T19:37:50.028Z,16.70
2023-06-12T19:40:17.597Z,16.66
2023-06-12T19:42:45.255Z,16.65
2023-06-12T19:45:15.250Z,16.65
2023-06-12T19:47:42.585Z,16.65
2023-06-12T19:50:10.612Z,16.64
2023-06-12T19:52:38.904Z,16.64
2023-06-12T19:55:09.475Z,16.64
2023-06-12T19:57:36.863Z,16.57
2023-06-12T20:00:04.625Z,16.51
2023-06-12T20:02:40.131Z,16.49
2023-06-12T20:05:08.343Z,16.45
2023-06-12T20:07:36.115Z,16.43
2023-06-12T20:10:05.284Z,16.47
2023-06-12T20:12:32.577Z,16.48
2023-06-12T20:15:01.560Z,16.46
2023-06-12T20:17:28.954Z,16.43
2023-06-12T20:19:56.262Z,16.42
2023-06-12T20:22:23.406Z,16.46
2023-06-12T20:24:50.475Z,16.50
2023-06-12T20:27:18.020Z,16.52
2023-06-12T20:29:44.968Z,16.54
2023-06-12T20:32:12.878Z,16.56
2023-06-12T20:34:40.307Z,16.56
2023-06-12T20:37:07.235Z,16.56
2023-06-12T20:39:35.912Z,16.57
2023-06-12T20:42:03.163Z,16.57
2023-06-12T20:44:30.421Z,16.59
2023-06-12T20:46:58.290Z,16.61
2023-06-12T20:49:26.559Z,16.62
2023-06-12T20:51:53.712Z,16.63
2023-06-12T20:54:21.274Z,16.61
2023-06-12T20:56:50.619Z,16.60
2023-06-12T20:59:21.112Z,16.58
2023-06-12T21:01:48.063Z,16.57
2023-06-12T21:04:15.518Z,16.56
2023-06-12T21:06:42.569Z,16.57
2023-06-12T21:09:10.348Z,16.56
2023-06-12T21:11:38.386Z,16.52
2023-06-12T21:14:07.127Z,16.50
2023-06-12T21:16:36.137Z,16.50
2023-06-12T21:19:04.545Z,16.49
2023-06-12T21:21:32.536Z,16.49
2023-06-12T21:23:59.789Z,16.47
2023-06-12T21:26:30.321Z,16.49
2023-06-12T21:29:01.143Z,16.47
2023-06-12T21:31:30.584Z,16.47
2023-06-12T21:33:58.654Z,16.46
2023-06-12T21:36:27.197Z,16.41
2023-06-12T21:38:54.670Z,16.39
2023-06-12T21:41:21.902Z,16.43
2023-06-12T21:43:48.847Z,16.41
2023-06-12T21:46:15.926Z,16.43
2023-06-12T21:48:43.038Z,16.43
2023-06-12T21:51:10.322Z,16.44
2023-06-12T21:53:37.443Z,16.45
2023-06-12T21:56:04.592Z,16.50
2023-06-12T21:58:32.336Z,16.53
2023-06-12T22:01:00.229Z,16.55
2023-06-12T22:03:27.975Z,16.58
2023-06-12T22:05:57.291Z,16.55
2023-06-12T22:08:24.977Z,16.54
2023-06-12T22:10:51.899Z,16.55
2023-06-12T22:13:19.660Z,16.56
2023-06-12T22:15:48.652Z,16.55
2023-06-12T22:18:16.367Z,16.58
2023-06-12T22:20:44.113Z,16.60
2023-06-12T22:23:13.189Z,16.60
2023-06-12T22:25:40.976Z,16.61
2023-06-12T22:28:11.049Z,16.62
2023-06-12T22:30:56.344Z,16.64
2023-06-12T22:33:25.423Z,16.67
2023-06-12T22:35:52.398Z,16.67
2023-06-12T22:38:19.525Z,16.63
2023-06-12T22:40:46.525Z,16.59
2023-06-12T22:43:15.760Z,16.60
2023-06-12T22:45:44.839Z,16.61
2023-06-12T22:48:18.234Z,16.61
2023-06-12T22:50:45.609Z,16.60
2023-06-12T22:53:13.781Z,16.56
2023-06-12T22:55:41.765Z,16.52
2023-06-12T22:58:08.797Z,16.50
2023-06-12T23:00:35.768Z,16.51
2023-06-12T23:03:03.551Z,16.50
2023-06-12T23:05:32.396Z,16.53
2023-06-12T23:08:01.194Z,16.56
2023-06-12T23:10:28.537Z,16.56
2023-06-12T23:12:59.167Z,16.52
2023-06-12T23:15:26.125Z,16.44
2023-06-12T23:17:53.077Z,16.40
2023-06-12T23:20:21.766Z,16.41
2023-06-12T23:22:52.787Z,16.44
2023-06-12T23:25:19.733Z,16.45
2023-06-12T23:27:46.676Z,16.47
2023-06-12T23:30:14.477Z,16.50
2023-06-12T23:32:43.309Z,16.49
2023-06-12T23:35:10.175Z,16.44
2023-06-12T23:37:37.764Z,16.41
2023-06-12T23:40:06.419Z,16.41
2023-06-12T23:42:34.798Z,16.41
2023-06-12T23:45:02.475Z,16.35
2023-06-12T23:47:29.745Z,16.33
2023-06-12T23:49:56.674Z,16.33
2023-06-12T23:52:24.435Z,16.32
2023-06-12T23:54:51.469Z,16.28
2023-06-12T23:57:18.311Z,16.28
2023-06-12T23:59:45.360Z,16.22
